Time;durP1;ratioP1;P1;durP2;ratioP2;P2;SDS_P1;SDS_P2;PMS_P1;PMS_P2;Temp;Humidity;BMP_temperature;BMP_pressure;BME280_temperature;BME280_humidity;BME280_pressure;Samples;Min_cycle;Max_cycle;Signal;HPM_P1;HPM_P2
2023/01/11 00:00:33;;;;;;;;;;;4.10;99.90;;;;;;4932851;29;19946;-81
2023/01/11 00:03:04;;;;;;;;;;;4.00;99.90;;;;;;4934837;29;20026;-81
2023/01/11 00:05:31;;;;;;;;;;;4.10;99.90;;;;;;4935143;29;19930;-81
2023/01/11 00:08:00;;;;;;;;;;;4.10;99.90;;;;;;4934880;29;19967;-81
2023/01/11 00:10:48;;;;;;;;;;;4.10;99.90;;;;;;4932065;29;19938;-81
2023/01/11 00:33:41;;;;;;;;;;;4.10;99.90;;;;;;4953014;28;19977;-80
2023/01/11 00:36:21;;;;;;;;;;;4.00;99.90;;;;;;4952081;28;19930;-81
2023/01/11 00:38:50;;;;;;;;;;;4.00;99.90;;;;;;4936813;29;20308;-81
2023/01/11 00:49:37;;;;;;;;;;;4.10;99.90;;;;;;4935920;29;20095;-80
2023/01/11 00:52:07;;;;;;;;;;;4.10;99.90;;;;;;4951391;28;19926;-81
2023/01/11 00:54:37;;;;;;;;;;;4.10;99.90;;;;;;4939042;28;19933;-81
2023/01/11 00:57:06;;;;;;;;;;;4.10;99.90;;;;;;4946357;28;19930;-80
2023/01/11 00:59:33;;;;;;;;;;;4.10;99.90;;;;;;4949387;28;19927;-81
2023/01/11 01:02:00;;;;;;;;;;;4.10;99.90;;;;;;4950610;28;20002;-81
2023/01/11 01:04:27;;;;;;;;;;;4.10;99.90;;;;;;4953422;28;20305;-81
2023/01/11 01:06:54;;;;;;;;;;;4.10;99.90;;;;;;4938219;29;19961;-81
2023/01/11 01:09:26;;;;;;;;;;;4.10;99.90;;;;;;4938130;29;20405;-81
2023/01/11 01:14:24;;;;;;;;;;;4.10;99.90;;;;;;4937771;29;20389;-80
2023/01/11 01:15:12;;;;;;;;;;;4.10;99.90;;;;;;4949748;28;19931;-81
2023/01/11 01:18:05;;;;;;;;;;;4.10;99.90;;;;;;5920346;23;19925;-81
2023/01/11 01:20:34;;;;;;;;;;;4.10;99.90;;;;;;4951832;28;19933;-81
2023/01/11 01:23:06;;;;;;;;;;;4.10;99.90;;;;;;4950661;28;19936;-80
2023/01/11 01:25:37;;;;;;;;;;;4.10;99.90;;;;;;4957642;28;20381;-81
2023/01/11 01:28:04;;;;;;;;;;;4.10;99.90;;;;;;4952430;28;20420;-81
2023/01/11 01:30:35;;;;;;;;;;;4.10;99.90;;;;;;4953876;28;19926;-80
2023/01/11 01:33:05;;;;;;;;;;;4.10;99.90;;;;;;4956312;28;19926;-80
2023/01/11 01:35:32;;;;;;;;;;;4.10;99.90;;;;;;4939778;28;19930;-81
2023/01/11 01:38:01;;;;;;;;;;;4.10;99.90;;;;;;4940516;28;19934;-80
2023/01/11 01:40:31;;;;;;;;;;;4.10;99.90;;;;;;4957589;28;19926;-81
2023/01/11 01:43:00;;;;;;;;;;;4.10;99.90;;;;;;4938474;28;20033;-80
2023/01/11 01:45:30;;;;;;;;;;;4.10;99.90;;;;;;4940944;28;19937;-81
2023/01/11 01:48:08;;;;;;;;;;;4.10;99.90;;;;;;4936627;28;19934;-81
2023/01/11 01:50:41;;;;;;;;;;;4.10;99.90;;;;;;4962477;28;19933;-81
2023/01/11 01:53:11;;;;;;;;;;;4.10;99.90;;;;;;4939109;28;19926;-81
2023/01/11 01:55:39;;;;;;;;;;;4.10;99.90;;;;;;4954413;28;20294;-81
2023/01/11 01:58:10;;;;;;;;;;;4.10;99.90;;;;;;4957562;28;20025;-81
2023/01/11 02:00:38;;;;;;;;;;;4.10;99.90;;;;;;4955578;28;20020;-79
2023/01/11 02:03:05;;;;;;;;;;;4.20;99.90;;;;;;4952050;28;19977;-81
2023/01/11 02:05:39;;;;;;;;;;;4.10;99.90;;;;;;4964631;28;19934;-80
2023/01/11 02:08:11;;;;;;;;;;;4.10;99.90;;;;;;4958433;28;19933;-80
2023/01/11 02:10:39;;;;;;;;;;;4.10;99.90;;;;;;4940072;28;19974;-81
2023/01/11 02:13:08;;;;;;;;;;;4.10;99.90;;;;;;4953979;28;20022;-81
2023/01/11 02:15:38;;;;;;;;;;;4.10;99.90;;;;;;4953705;28;19972;-80
2023/01/11 02:18:09;;;;;;;;;;;4.10;99.90;;;;;;4952336;28;19930;-81
2023/01/11 02:20:44;;;;;;;;;;;4.20;99.90;;;;;;4954676;28;20073;-81
2023/01/11 02:23:30;;;;;;;;;;;4.20;99.90;;;;;;4934788;28;20381;-81
2023/01/11 02:26:18;;;;;;;;;;;4.10;99.90;;;;;;4957458;28;19930;-81
2023/01/11 02:28:51;;;;;;;;;;;4.20;99.90;;;;;;4933574;28;20021;-81
2023/01/11 02:31:25;;;;;;;;;;;4.10;99.90;;;;;;4951651;28;19932;-80
2023/01/11 02:33:57;;;;;;;;;;;4.10;99.90;;;;;;4951324;28;20364;-81
2023/01/11 02:36:30;;;;;;;;;;;4.10;99.90;;;;;;4950591;28;19935;-81
2023/01/11 02:39:00;;;;;;;;;;;4.20;99.90;;;;;;4949684;28;20456;-81
2023/01/11 02:45:00;;;;;;;;;;;4.10;99.90;;;;;;4952358;28;20407;-80
2023/01/11 02:47:16;;;;;;;;;;;4.10;99.90;;;;;;4951190;28;19933;-81
2023/01/11 02:49:49;;;;;;;;;;;4.20;99.90;;;;;;4953218;28;19930;-81
2023/01/11 02:52:19;;;;;;;;;;;4.10;99.90;;;;;;4939438;28;19933;-80
2023/01/11 02:54:55;;;;;;;;;;;4.20;99.90;;;;;;4953898;28;19927;-81
2023/01/11 02:57:24;;;;;;;;;;;4.20;99.90;;;;;;4932963;29;19954;-81
2023/01/11 02:59:56;;;;;;;;;;;4.20;99.90;;;;;;4940639;28;19927;-80
2023/01/11 03:02:24;;;;;;;;;;;4.20;99.90;;;;;;4936679;28;19933;-81
2023/01/11 03:04:55;;;;;;;;;;;4.20;99.90;;;;;;4938503;28;20376;-80
2023/01/11 03:07:37;;;;;;;;;;;4.20;99.90;;;;;;4934456;28;19965;-81
2023/01/11 03:10:17;;;;;;;;;;;4.20;99.90;;;;;;4937640;28;19946;-81
2023/01/11 03:12:53;;;;;;;;;;;4.20;99.90;;;;;;4952229;28;20408;-81
2023/01/11 03:15:37;;;;;;;;;;;4.20;99.90;;;;;;4948866;28;19926;-81
2023/01/11 03:18:10;;;;;;;;;;;4.20;99.90;;;;;;4953165;28;19931;-80
2023/01/11 03:20:39;;;;;;;;;;;4.20;99.90;;;;;;4937600;28;19935;-81
2023/01/11 03:23:13;;;;;;;;;;;4.20;99.90;;;;;;4948364;28;19933;-80
2023/01/11 03:25:45;;;;;;;;;;;4.20;99.90;;;;;;4949063;28;20346;-81
2023/01/11 03:28:14;;;;;;;;;;;4.20;99.90;;;;;;4950739;28;19934;-80
2023/01/11 03:30:47;;;;;;;;;;;4.20;99.90;;;;;;4938383;28;19937;-80
2023/01/11 03:33:18;;;;;;;;;;;4.20;99.90;;;;;;4949750;28;20013;-81
2023/01/11 03:35:48;;;;;;;;;;;4.20;99.90;;;;;;4931716;28;19926;-81
2023/01/11 03:38:20;;;;;;;;;;;4.20;99.90;;;;;;4950571;28;19937;-80
2023/01/11 03:40:51;;;;;;;;;;;4.20;99.90;;;;;;4934996;28;19930;-81
2023/01/11 03:43:26;;;;;;;;;;;4.20;99.90;;;;;;4949395;28;20408;-81
2023/01/11 03:45:56;;;;;;;;;;;4.20;99.90;;;;;;4953007;28;19934;-81
2023/01/11 03:48:26;;;;;;;;;;;4.20;99.90;;;;;;4939219;29;20013;-80
2023/01/11 03:50:54;;;;;;;;;;;4.20;99.90;;;;;;4963454;28;20343;-81
2023/01/11 03:53:25;;;;;;;;;;;4.20;99.90;;;;;;4961141;28;19926;-81
2023/01/11 03:55:56;;;;;;;;;;;4.20;99.90;;;;;;4959017;28;19933;-81
2023/01/11 03:58:23;;;;;;;;;;;4.20;99.90;;;;;;4961780;28;19937;-81
2023/01/11 04:00:50;;;;;;;;;;;4.20;99.90;;;;;;4956552;28;19927;-81
2023/01/11 04:03:19;;;;;;;;;;;4.20;99.90;;;;;;4936037;28;19938;-81
2023/01/11 04:05:50;;;;;;;;;;;4.20;99.90;;;;;;4952000;28;19937;-81
2023/01/11 04:08:20;;;;;;;;;;;4.20;99.90;;;;;;4945048;28;20348;-80
2023/01/11 04:10:50;;;;;;;;;;;4.20;99.90;;;;;;4956989;28;19926;-81
2023/01/11 04:13:19;;;;;;;;;;;4.20;99.90;;;;;;4934897;28;20349;-81
2023/01/11 04:15:47;;;;;;;;;;;4.20;99.90;;;;;;4931076;28;19930;-81
2023/01/11 04:18:14;;;;;;;;;;;4.20;99.90;;;;;;4943025;28;19927;-81
2023/01/11 04:20:45;;;;;;;;;;;4.20;99.90;;;;;;4947391;28;19934;-80
2023/01/11 04:23:13;;;;;;;;;;;4.20;99.90;;;;;;4947347;28;19937;-80
2023/01/11 04:25:46;;;;;;;;;;;4.20;99.90;;;;;;4952953;28;19934;-80
2023/01/11 04:28:14;;;;;;;;;;;4.20;99.90;;;;;;4936817;28;19933;-80
2023/01/11 04:30:41;;;;;;;;;;;4.30;99.90;;;;;;4936031;28;21072;-80
2023/01/11 04:33:11;;;;;;;;;;;4.20;99.90;;;;;;4950108;28;19935;-80
2023/01/11 04:35:39;;;;;;;;;;;4.20;99.90;;;;;;4937830;29;19933;-81
2023/01/11 04:38:07;;;;;;;;;;;4.20;99.90;;;;;;4948372;28;20413;-80
2023/01/11 04:40:34;;;;;;;;;;;4.20;99.90;;;;;;4945168;28;20133;-80
2023/01/11 04:43:01;;;;;;;;;;;4.20;99.90;;;;;;4947858;28;20500;-81
2023/01/11 04:45:30;;;;;;;;;;;4.30;99.90;;;;;;4929739;28;19976;-79
2023/01/11 04:47:57;;;;;;;;;;;4.30;99.90;;;;;;4942778;28;20388;-80
2023/01/11 04:50:27;;;;;;;;;;;4.30;99.90;;;;;;4945749;28;19938;-80
2023/01/11 04:52:55;;;;;;;;;;;4.30;99.90;;;;;;4954827;28;19927;-79
2023/01/11 04:55:23;;;;;;;;;;;4.30;99.90;;;;;;4950667;28;19933;-80
2023/01/11 04:57:50;;;;;;;;;;;4.30;99.90;;;;;;4947494;28;20061;-80
2023/01/11 05:00:18;;;;;;;;;;;4.20;99.90;;;;;;4947177;28;20408;-79
2023/01/11 05:54:30;;;;;;;;;;;4.40;99.90;;;;;;5801342;23;20302;-81
2023/01/11 06:36:02;;;;;;;;;;;4.40;99.90;;;;;;5016085;23;19973;-81
2023/01/11 06:38:31;;;;;;;;;;;4.40;99.90;;;;;;4958992;28;19958;-80
2023/01/11 06:41:00;;;;;;;;;;;4.40;99.90;;;;;;4956307;28;20017;-80
2023/01/11 06:43:27;;;;;;;;;;;4.40;99.90;;;;;;4941901;28;19926;-80
2023/01/11 06:45:54;;;;;;;;;;;4.40;99.90;;;;;;4945350;28;19934;-79
2023/01/11 06:48:22;;;;;;;;;;;4.40;99.90;;;;;;4948018;28;19926;-80
2023/01/11 06:50:50;;;;;;;;;;;4.40;99.90;;;;;;4945662;28;20018;-81
2023/01/11 06:53:20;;;;;;;;;;;4.40;99.90;;;;;;5039634;23;19966;-81
2023/01/11 07:02:36;;;;;;;;;;;4.40;99.90;;;;;;4923630;29;19966;-81
2023/01/11 07:05:30;;;;;;;;;;;4.40;99.90;;;;;;4920896;29;20358;-82
2023/01/11 07:07:58;;;;;;;;;;;4.40;99.90;;;;;;4940272;29;19927;-81
2023/01/11 07:13:33;;;;;;;;;;;4.40;99.90;;;;;;4911579;29;20394;-80
2023/01/11 07:34:52;;;;;;;;;;;4.40;99.90;;;;;;5303034;23;19927;-79
2023/01/11 07:37:19;;;;;;;;;;;4.40;99.90;;;;;;4925525;29;19931;-78
2023/01/11 07:39:48;;;;;;;;;;;4.40;99.90;;;;;;4940241;28;19933;-80
2023/01/11 07:44:59;;;;;;;;;;;4.40;99.90;;;;;;4936360;29;19929;-78
2023/01/11 07:47:26;;;;;;;;;;;4.40;99.90;;;;;;4939675;28;20088;-79
2023/01/11 07:49:54;;;;;;;;;;;4.40;99.90;;;;;;4935747;29;20566;-80
2023/01/11 07:52:21;;;;;;;;;;;4.40;99.90;;;;;;4938992;29;19934;-79
2023/01/11 07:54:48;;;;;;;;;;;4.40;99.90;;;;;;4930407;29;19970;-79
2023/01/11 07:57:15;;;;;;;;;;;4.40;99.90;;;;;;4940127;28;20025;-80
2023/01/11 07:59:41;;;;;;;;;;;4.40;99.90;;;;;;4921067;29;20013;-80
2023/01/11 08:02:10;;;;;;;;;;;4.40;99.90;;;;;;4910072;29;19934;-79
2023/01/11 08:04:36;;;;;;;;;;;4.40;99.90;;;;;;4920558;29;20005;-79
2023/01/11 08:07:05;;;;;;;;;;;4.40;99.90;;;;;;4919907;29;20059;-79
2023/01/11 08:09:31;;;;;;;;;;;4.40;99.90;;;;;;4937311;29;19927;-80
2023/01/11 08:14:42;;;;;;;;;;;4.40;99.90;;;;;;4946119;29;20065;-79
2023/01/11 08:17:11;;;;;;;;;;;4.40;99.90;;;;;;4937218;28;20312;-80
2023/01/11 08:19:38;;;;;;;;;;;4.40;99.90;;;;;;4924848;29;19935;-80
2023/01/11 08:22:06;;;;;;;;;;;4.40;99.90;;;;;;4938397;29;19934;-80
2023/01/11 08:24:34;;;;;;;;;;;4.40;99.90;;;;;;4921764;29;19930;-80
2023/01/11 08:27:01;;;;;;;;;;;4.40;99.90;;;;;;4910070;29;20393;-79
2023/01/11 08:29:28;;;;;;;;;;;4.40;99.90;;;;;;4937401;29;19985;-79
2023/01/11 08:31:55;;;;;;;;;;;4.40;99.90;;;;;;4939839;29;19970;-80
2023/01/11 08:34:22;;;;;;;;;;;4.40;99.90;;;;;;4914296;29;19934;-79
2023/01/11 08:36:49;;;;;;;;;;;4.40;99.90;;;;;;4934125;29;19931;-79
2023/01/11 08:39:17;;;;;;;;;;;4.40;99.90;;;;;;4944299;29;20009;-79
2023/01/11 08:41:44;;;;;;;;;;;4.40;99.90;;;;;;4920620;29;19927;-80
2023/01/11 08:44:11;;;;;;;;;;;4.40;99.90;;;;;;4938195;29;20021;-79
2023/01/11 08:46:38;;;;;;;;;;;4.40;99.90;;;;;;4939380;29;20366;-80
2023/01/11 08:49:10;;;;;;;;;;;4.40;99.90;;;;;;4923830;29;19982;-79
2023/01/11 08:51:38;;;;;;;;;;;4.40;99.90;;;;;;4940118;29;19949;-80
2023/01/11 08:54:06;;;;;;;;;;;4.40;99.90;;;;;;4939194;28;19927;-79
2023/01/11 08:56:34;;;;;;;;;;;4.40;99.90;;;;;;4930141;29;19933;-79
2023/01/11 08:59:01;;;;;;;;;;;4.40;99.90;;;;;;4943627;29;19927;-79
2023/01/11 09:01:28;;;;;;;;;;;4.40;99.90;;;;;;4936089;29;19927;-79
2023/01/11 09:03:55;;;;;;;;;;;4.40;99.90;;;;;;4938376;28;19931;-80
2023/01/11 09:06:22;;;;;;;;;;;4.40;99.90;;;;;;4927565;29;19926;-80
2023/01/11 09:08:49;;;;;;;;;;;4.40;99.90;;;;;;4924728;29;19926;-79
2023/01/11 09:13:57;;;;;;;;;;;4.40;99.90;;;;;;4930993;29;19930;-79
2023/01/11 09:16:25;;;;;;;;;;;4.40;99.90;;;;;;4935314;29;19931;-80
2023/01/11 09:18:51;;;;;;;;;;;4.40;99.90;;;;;;4914577;29;20037;-79
2023/01/11 09:21:18;;;;;;;;;;;4.40;99.90;;;;;;4923018;28;19931;-79
2023/01/11 09:23:45;;;;;;;;;;;4.50;99.90;;;;;;4929735;29;19934;-79
2023/01/11 09:26:12;;;;;;;;;;;4.50;99.90;;;;;;4938769;29;19951;-79
2023/01/11 09:28:39;;;;;;;;;;;4.50;99.90;;;;;;4934943;28;19927;-79
2023/01/11 09:31:07;;;;;;;;;;;4.60;99.90;;;;;;4918961;29;19926;-79
2023/01/11 09:33:34;;;;;;;;;;;4.60;99.90;;;;;;4919250;29;19931;-80
2023/01/11 09:36:01;;;;;;;;;;;4.60;99.90;;;;;;4936803;29;20574;-80
2023/01/11 09:38:29;;;;;;;;;;;4.70;99.90;;;;;;4935418;29;20380;-80
2023/01/11 09:40:59;;;;;;;;;;;4.70;99.90;;;;;;4938425;29;19933;-80
2023/01/11 09:43:27;;;;;;;;;;;4.80;99.90;;;;;;4924397;29;19981;-79
2023/01/11 09:45:57;;;;;;;;;;;4.80;99.90;;;;;;4919631;29;20547;-80
2023/01/11 09:48:32;;;;;;;;;;;4.80;99.90;;;;;;4942180;29;20273;-80
2023/01/11 09:51:00;;;;;;;;;;;4.80;99.90;;;;;;4918683;29;19941;-80
2023/01/11 09:53:33;;;;;;;;;;;4.80;99.90;;;;;;4915569;29;19930;-79
2023/01/11 09:56:02;;;;;;;;;;;4.90;99.90;;;;;;4937370;29;19926;-80
2023/01/11 09:58:50;;;;;;;;;;;4.90;99.90;;;;;;4936058;29;20464;-79
2023/01/11 10:01:19;;;;;;;;;;;4.90;99.90;;;;;;4931213;28;19977;-79
2023/01/11 10:03:58;;;;;;;;;;;5.00;99.90;;;;;;4941809;29;20282;-79
2023/01/11 10:06:28;;;;;;;;;;;5.00;99.90;;;;;;4942906;28;20001;-80
2023/01/11 10:09:10;;;;;;;;;;;5.00;99.90;;;;;;4939327;29;19962;-80
2023/01/11 10:11:42;;;;;;;;;;;5.00;99.90;;;;;;4922649;29;19927;-79
2023/01/11 10:14:14;;;;;;;;;;;5.00;99.90;;;;;;4942493;28;19934;-80
2023/01/11 10:16:47;;;;;;;;;;;5.10;99.90;;;;;;4914367;29;19927;-79
2023/01/11 10:19:18;;;;;;;;;;;5.10;99.90;;;;;;4938206;29;19942;-80
2023/01/11 10:21:48;;;;;;;;;;;5.10;99.90;;;;;;4934521;29;19934;-80
2023/01/11 10:24:19;;;;;;;;;;;5.10;99.90;;;;;;4917876;29;19946;-80
2023/01/11 10:26:48;;;;;;;;;;;5.20;99.90;;;;;;4920274;29;19934;-79
2023/01/11 10:29:38;;;;;;;;;;;5.20;99.90;;;;;;4932331;29;19954;-80
2023/01/11 10:32:32;;;;;;;;;;;5.20;99.90;;;;;;4943296;29;19935;-80
2023/01/11 10:38:05;;;;;;;;;;;5.30;99.90;;;;;;4889253;28;19933;-80
2023/01/11 10:41:01;;;;;;;;;;;5.30;99.90;;;;;;4938070;28;20005;-80
2023/01/11 10:43:28;;;;;;;;;;;5.30;99.90;;;;;;4936165;28;19958;-80
2023/01/11 10:45:56;;;;;;;;;;;5.40;99.90;;;;;;4940361;29;19930;-80
2023/01/11 10:48:26;;;;;;;;;;;5.40;99.90;;;;;;4935156;28;19934;-80
2023/01/11 10:51:00;;;;;;;;;;;5.40;99.90;;;;;;4940529;29;19934;-80
2023/01/11 10:53:30;;;;;;;;;;;5.50;99.90;;;;;;4933252;29;20294;-80
2023/01/11 10:56:01;;;;;;;;;;;5.50;99.90;;;;;;4927145;29;19927;-80
2023/01/11 10:58:37;;;;;;;;;;;5.50;99.90;;;;;;4939574;28;19927;-80
2023/01/11 11:01:11;;;;;;;;;;;5.50;99.90;;;;;;4915224;29;19937;-80
2023/01/11 11:03:48;;;;;;;;;;;5.50;99.90;;;;;;4937528;29;19926;-79
2023/01/11 11:06:20;;;;;;;;;;;5.60;99.90;;;;;;4942002;29;20005;-80
2023/01/11 11:08:52;;;;;;;;;;;5.50;99.90;;;;;;4933550;28;19989;-80
2023/01/11 11:11:22;;;;;;;;;;;5.50;99.90;;;;;;4942594;29;19927;-80
2023/01/11 11:13:53;;;;;;;;;;;5.60;99.90;;;;;;4943355;29;19946;-80
2023/01/11 11:16:27;;;;;;;;;;;5.60;99.90;;;;;;4925753;29;19927;-80
2023/01/11 11:18:57;;;;;;;;;;;5.60;99.90;;;;;;4926720;29;19970;-80
2023/01/11 11:21:29;;;;;;;;;;;5.70;99.90;;;;;;4940925;28;19954;-80
2023/01/11 11:23:59;;;;;;;;;;;5.70;99.90;;;;;;4933160;29;20122;-80
2023/01/11 11:26:29;;;;;;;;;;;5.70;99.90;;;;;;4934756;29;19934;-80
2023/01/11 11:29:01;;;;;;;;;;;5.70;99.90;;;;;;4934038;29;19927;-80
2023/01/11 11:31:32;;;;;;;;;;;5.70;99.90;;;;;;4961810;29;19971;-81
2023/01/11 11:37:33;;;;;;;;;;;5.80;99.90;;;;;;5316181;23;19933;-80
2023/01/11 11:40:28;;;;;;;;;;;5.80;99.90;;;;;;4939280;29;19926;-80
2023/01/11 11:43:08;;;;;;;;;;;5.80;99.90;;;;;;4950803;29;19978;-81
2023/01/11 11:48:30;;;;;;;;;;;5.90;99.90;;;;;;4975396;23;20031;-80
2023/01/11 11:51:40;;;;;;;;;;;5.90;99.90;;;;;;4939846;29;20013;-79
2023/01/11 11:57:00;;;;;;;;;;;6.00;99.90;;;;;;4933631;29;19946;-79
2023/01/11 11:59:29;;;;;;;;;;;6.00;99.90;;;;;;4931909;29;19939;-77
2023/01/11 12:04:45;;;;;;;;;;;6.00;99.90;;;;;;5585755;23;20779;-79
2023/01/11 12:07:14;;;;;;;;;;;6.00;99.90;;;;;;5647589;23;19938;-82
2023/01/11 12:09:47;;;;;;;;;;;6.00;99.90;;;;;;5143404;23;19953;-80
2023/01/11 12:38:47;;;;;;;;;;;6.20;99.90;;;;;;4890450;29;19949;-81
2023/01/11 12:58:35;;;;;;;;;;;6.30;99.90;;;;;;5075263;23;19976;-81
2023/01/11 13:01:27;;;;;;;;;;;6.00;99.90;;;;;;4958429;28;19938;-80
2023/01/11 13:04:19;;;;;;;;;;;6.40;99.90;;;;;;4956401;28;19926;-81
2023/01/11 13:07:12;;;;;;;;;;;6.30;99.90;;;;;;4953379;28;19933;-81
2023/01/11 13:10:16;;;;;;;;;;;6.40;99.90;;;;;;4960096;28;19926;-80
2023/01/11 13:12:47;;;;;;;;;;;6.30;99.90;;;;;;4944471;29;19927;-80
2023/01/11 13:18:11;;;;;;;;;;;6.40;99.90;;;;;;5957642;23;19947;-79
2023/01/11 13:20:43;;;;;;;;;;;6.30;99.90;;;;;;4936897;29;19927;-80
2023/01/11 13:23:13;;;;;;;;;;;6.40;99.90;;;;;;4914524;29;19931;-80
2023/01/11 13:25:44;;;;;;;;;;;6.40;99.90;;;;;;5743063;23;21307;-80
2023/01/11 13:28:47;;;;;;;;;;;6.40;99.90;;;;;;5520499;23;19966;-80
2023/01/11 13:54:58;;;;;;;;;;;6.50;99.90;;;;;;5171179;23;19926;-80
2023/01/11 13:57:36;;;;;;;;;;;6.50;99.90;;;;;;4970562;28;19927;-81
2023/01/11 14:02:49;;;;;;;;;;;6.50;99.90;;;;;;5822554;23;19969;-80
2023/01/11 15:28:47;;;;;;;;;;;6.70;99.90;;;;;;4927899;29;19950;-80
2023/01/11 16:17:31;;;;;;;;;;;6.70;99.90;;;;;;5741688;23;19958;-81
